الصفحة الرئيسية
METAR-TAF:

METAR-TAF

مطار :

أليانس, نبراسكا, الولايات المتحدة

دائرة عرض: 42-03-26N, خط طول: 102-48-00W, ارتفاع: 1197 متر

مراقبة الطقس الحالي

تاريخ ووقت الإصدار 13 دقيقة قبل الساعة 18:53UTC
ريح 7 عقدة من الشمال
درجة الحرارة 24°درجة مئوية
الرطوبة 57%
ضغط 1019 hPa
الرؤية: 16.1 كم
ملبد بالغيوم على ارتفاع 4300 قدم

METAR: KAIA 141853Z AUTO 36007KT 10SM OVC043 24/15 A3010 RMK AO2 SLP154 T02440150

زمن: 13:06 (19:06 UTC)

توقعات

تاريخ ووقت الإصدار 1ساعة و 21 دقيقة قبل الساعة 17:45UTC
التوقعات صالحة من14 الساعة 18 UTC إلى 15 الساعة 18 UTC
ريح 12 عقدة من الشمال الشرقي
الرؤية: 10 كم
سماء صافية
من 14 الساعة 2300 UTC
ريح 9 عقدة من الشرق/الجنوب الشرقي
الرؤية: 10 كم
غيوم متفرقة على ارتفاع 20000 قدم
من 15 الساعة 1400 UTC
ريح 8 عقدة من الجنوب
الرؤية: 10 كم
سماء صافية

TAF: KAIA 141745Z 1418/1518 04012KT P6SM SKC FM142300 12009KT P6SM SCT200 FM151400 17008KT P6SM SKC

أرصاد الطقس والتوقعات من أكثر من 4000 مطار (تقارير الطقس للمطار METAR والتنبؤ بالطقس بالمطارTAF).

المحطات المتاحة هي النقط الصفراء والحمراء على الخريطة.

حرك المؤشر فوق النقطة لمعرفة اسم المحطة.

ثم انقر لمعرفة أرصاد وتوقعات الطقس.

لتغيير الخارطة: اضغط على الأزرار الخضراء مع رمز الصليب الأسود للتكبير. على الزر الأخضر مع شرطة للتصغير، أو على الأسهم الخضراء للخرائط المجاورة.


METAR-TAF: